createdAt,value
2022-08-08T00:02:30.931Z,18.31
2022-08-08T00:08:09.343Z,18.28
2022-08-08T00:14:15.861Z,18.23
2022-08-08T00:19:51.337Z,18.23
2022-08-08T00:25:39.065Z,18.21
2022-08-08T00:32:20.178Z,18.25
2022-08-08T00:37:47.256Z,18.23
2022-08-08T00:43:45.922Z,18.19
2022-08-08T00:49:58.831Z,18.19
2022-08-08T00:55:54.363Z,18.17
2022-08-08T01:01:37.621Z,18.17
2022-08-08T01:07:55.854Z,18.15
2022-08-08T01:13:58.036Z,18.11
2022-08-08T01:20:03.468Z,18.06
2022-08-08T01:26:05.985Z,18.02
2022-08-08T01:32:16.269Z,17.98
2022-08-08T01:38:33.491Z,17.95
2022-08-08T01:44:26.819Z,17.90
2022-08-08T01:50:20.836Z,17.89
2022-08-08T01:56:29.540Z,17.87
2022-08-08T02:02:39.889Z,17.82
2022-08-08T02:08:41.335Z,17.80
2022-08-08T02:14:27.702Z,17.79
2022-08-08T02:21:01.379Z,17.76
2022-08-08T02:26:16.537Z,17.68
2022-08-08T02:32:27.240Z,17.66
2022-08-08T02:38:11.013Z,17.62
2022-08-08T02:44:38.104Z,17.60
2022-08-08T02:50:39.975Z,17.57
2022-08-08T02:56:33.755Z,17.58
2022-08-08T03:02:20.226Z,17.55
2022-08-08T03:08:19.370Z,17.52
2022-08-08T03:16:02.469Z,17.48
2022-08-08T03:20:25.808Z,17.39
2022-08-08T03:25:58.189Z,17.36
2022-08-08T03:32:06.616Z,17.33
2022-08-08T03:37:59.350Z,17.25
2022-08-08T03:43:38.289Z,17.21
2022-08-08T03:49:58.078Z,17.11
2022-08-08T03:55:20.049Z,17.13
2022-08-08T04:01:23.571Z,17.16
2022-08-08T04:07:00.962Z,17.12
2022-08-08T04:12:37.403Z,17.05
2022-08-08T04:18:09.343Z,17.03
2022-08-08T04:24:11.504Z,17.02
2022-08-08T04:29:44.769Z,17.01
2022-08-08T04:35:39.527Z,16.96
2022-08-08T04:41:17.941Z,16.90
2022-08-08T04:46:53.513Z,16.89
2022-08-08T04:52:25.495Z,16.88
2022-08-08T04:58:11.105Z,16.77
2022-08-08T05:04:11.008Z,16.68
2022-08-08T05:09:41.363Z,16.52
2022-08-08T05:15:13.715Z,16.42
2022-08-08T05:20:50.495Z,16.35
2022-08-08T05:26:23.836Z,16.29
2022-08-08T05:32:03.785Z,16.26
2022-08-08T05:37:52.745Z,15.97
2022-08-08T05:44:04.205Z,15.38
2022-08-08T05:49:38.138Z,15.07
2022-08-08T05:55:10.933Z,14.94
2022-08-08T06:00:57.107Z,15.08
2022-08-08T06:06:32.625Z,15.36
2022-08-08T06:12:07.230Z,15.58
2022-08-08T06:18:18.234Z,15.94
2022-08-08T06:24:01.956Z,16.27
2022-08-08T06:29:59.528Z,16.46
2022-08-08T06:36:06.670Z,16.60
2022-08-08T06:41:23.526Z,16.91
2022-08-08T06:47:04.234Z,17.04
2022-08-08T06:52:42.963Z,17.29
2022-08-08T06:58:19.619Z,17.60
2022-08-08T07:04:37.510Z,17.68
2022-08-08T07:10:08.242Z,17.70
2022-08-08T07:16:10.600Z,17.86
2022-08-08T07:22:11.998Z,18.07
2022-08-08T07:28:08.282Z,18.26
2022-08-08T07:33:58.830Z,18.32
2022-08-08T07:39:45.679Z,18.53
2022-08-08T07:45:34.711Z,18.74
2022-08-08T07:51:24.397Z,18.76
2022-08-08T07:57:29.301Z,19.10
2022-08-08T08:03:23.451Z,19.53
2022-08-08T08:09:13.607Z,19.77
2022-08-08T08:15:07.099Z,19.98
2022-08-08T08:20:43.526Z,20.04
2022-08-08T08:26:27.284Z,20.22
2022-08-08T08:32:03.543Z,20.46
2022-08-08T08:37:59.202Z,20.57
2022-08-08T08:43:31.974Z,20.86
2022-08-08T08:49:05.770Z,21.17
2022-08-08T08:54:41.373Z,21.50
2022-08-08T09:00:16.977Z,21.27
2022-08-08T09:05:54.163Z,20.66
2022-08-08T09:11:33.105Z,20.88
2022-08-08T09:17:12.833Z,20.44
2022-08-08T09:22:45.888Z,20.02
2022-08-08T09:28:35.789Z,19.85
2022-08-08T09:34:32.359Z,19.70
2022-08-08T09:40:12.012Z,20.60
2022-08-08T09:45:54.923Z,20.35
2022-08-08T09:52:01.752Z,20.82
2022-08-08T09:57:46.309Z,21.51
2022-08-08T10:03:31.822Z,21.86
2022-08-08T10:09:08.355Z,21.12
2022-08-08T10:14:40.493Z,21.48
2022-08-08T10:20:17.111Z,21.94
2022-08-08T10:25:57.044Z,22.28
2022-08-08T10:31:49.882Z,22.64
2022-08-08T10:37:28.259Z,22.66
2022-08-08T10:43:04.070Z,22.60
2022-08-08T10:48:57.251Z,22.81
2022-08-08T10:54:27.617Z,22.86
2022-08-08T10:59:59.722Z,23.08
2022-08-08T11:05:38.397Z,23.40
2022-08-08T11:11:31.566Z,23.74
2022-08-08T11:17:03.984Z,24.01
2022-08-08T11:22:35.638Z,24.06
2022-08-08T11:28:09.008Z,24.20
2022-08-08T11:33:52.585Z,24.32
2022-08-08T11:39:37.119Z,24.45
2022-08-08T11:45:10.163Z,24.57
2022-08-08T11:50:41.609Z,24.97
2022-08-08T11:56:23.625Z,25.30
2022-08-08T12:02:30.470Z,25.50
2022-08-08T12:07:56.805Z,25.64
2022-08-08T12:13:33.338Z,25.78
2022-08-08T12:19:12.382Z,25.87
2022-08-08T12:24:51.548Z,25.91
2022-08-08T12:30:32.068Z,26.01
2022-08-08T12:36:13.953Z,26.07
2022-08-08T12:41:57.771Z,26.08
2022-08-08T12:47:58.950Z,26.12
2022-08-08T12:53:37.661Z,26.15
2022-08-08T12:59:16.425Z,26.21
2022-08-08T13:04:51.831Z,26.25
2022-08-08T13:10:32.756Z,26.28
2022-08-08T13:16:25.599Z,26.30
2022-08-08T13:22:04.619Z,26.28
2022-08-08T13:27:37.137Z,26.31
2022-08-08T13:33:08.694Z,26.30
2022-08-08T13:38:40.161Z,26.28
2022-08-08T13:44:12.160Z,26.26
2022-08-08T13:50:37.383Z,26.23
2022-08-08T13:55:36.654Z,26.17
2022-08-08T14:01:17.723Z,26.11
2022-08-08T14:06:49.092Z,26.06
2022-08-08T14:12:20.336Z,26.00
2022-08-08T14:18:36.745Z,25.94
2022-08-08T14:24:04.586Z,25.89
2022-08-08T14:29:40.278Z,25.85
2022-08-08T14:35:13.288Z,25.78
2022-08-08T14:40:48.267Z,25.71
2022-08-08T14:46:32.479Z,25.63
2022-08-08T14:52:09.034Z,25.57
2022-08-08T14:58:03.594Z,25.52
2022-08-08T15:03:35.287Z,25.44
2022-08-08T15:09:15.980Z,25.36
2022-08-08T15:14:49.665Z,25.29
2022-08-08T15:20:20.915Z,25.22
2022-08-08T15:25:52.000Z,25.14
2022-08-08T15:31:55.477Z,25.11
2022-08-08T15:37:14.235Z,25.05
2022-08-08T15:42:49.687Z,25.05
2022-08-08T15:48:21.365Z,25.02
2022-08-08T15:53:54.328Z,24.97
2022-08-08T16:00:06.700Z,24.92
2022-08-08T16:05:19.407Z,24.87
2022-08-08T16:13:09.542Z,24.82
2022-08-08T16:16:43.063Z,24.77
2022-08-08T16:22:28.717Z,24.68
2022-08-08T16:28:02.417Z,24.62
2022-08-08T16:33:38.793Z,24.56
2022-08-08T16:39:27.829Z,24.49
2022-08-08T16:44:59.537Z,24.42
2022-08-08T16:50:30.785Z,24.33
2022-08-08T16:56:03.151Z,24.24
2022-08-08T17:01:35.631Z,24.14
2022-08-08T17:07:11.285Z,24.05
2022-08-08T17:12:47.033Z,23.96
2022-08-08T17:18:24.987Z,23.87
2022-08-08T17:24:00.483Z,23.78
2022-08-08T17:29:36.457Z,23.69
2022-08-08T17:35:54.131Z,23.62
2022-08-08T17:41:07.835Z,23.52
2022-08-08T17:46:44.039Z,23.42
2022-08-08T17:52:15.313Z,23.33
2022-08-08T17:57:46.518Z,23.25
2022-08-08T18:03:18.751Z,23.15
2022-08-08T18:08:55.363Z,23.05
2022-08-08T18:14:27.635Z,22.96
2022-08-08T18:20:43.587Z,22.86
2022-08-08T18:25:51.204Z,22.77
2022-08-08T18:31:22.912Z,22.68
2022-08-08T18:36:55.809Z,22.58
2022-08-08T18:42:26.923Z,22.53
2022-08-08T18:47:58.056Z,22.46
2022-08-08T18:54:00.799Z,22.35
2022-08-08T18:59:22.921Z,22.28
2022-08-08T19:04:54.547Z,22.18
2022-08-08T19:10:25.916Z,22.08
2022-08-08T19:15:57.166Z,21.99
2022-08-08T19:21:33.551Z,21.90
2022-08-08T19:27:56.111Z,21.84
2022-08-08T19:33:10.710Z,21.76
2022-08-08T19:38:43.148Z,21.68
2022-08-08T19:44:26.673Z,21.60
2022-08-08T19:50:06.603Z,21.51
2022-08-08T19:55:39.990Z,21.41
2022-08-08T20:01:17.518Z,21.32
2022-08-08T20:06:51.065Z,21.23
2022-08-08T20:12:32.321Z,21.12
2022-08-08T20:18:15.779Z,21.02
2022-08-08T20:23:52.285Z,20.94
2022-08-08T20:29:24.404Z,20.80
2022-08-08T20:35:15.413Z,20.68
2022-08-08T20:40:53.860Z,20.64
2022-08-08T20:46:25.324Z,20.57
2022-08-08T20:51:58.535Z,20.51
2022-08-08T20:57:29.927Z,20.42
2022-08-08T21:03:01.301Z,20.37
2022-08-08T21:08:36.043Z,20.32
2022-08-08T21:14:30.377Z,20.26
2022-08-08T21:20:06.355Z,20.10
2022-08-08T21:25:37.622Z,19.94
2022-08-08T21:31:21.917Z,19.81
2022-08-08T21:36:55.274Z,19.70
2022-08-08T21:42:29.897Z,19.63
2022-08-08T21:48:10.936Z,19.56
2022-08-08T21:54:33.971Z,19.49
2022-08-08T22:00:01.243Z,19.43
2022-08-08T22:05:44.327Z,19.34
2022-08-08T22:11:51.301Z,19.29
2022-08-08T22:17:07.210Z,19.23
2022-08-08T22:22:39.196Z,19.19
2022-08-08T22:29:04.032Z,19.11
2022-08-08T22:34:13.948Z,19.03
2022-08-08T22:40:00.397Z,18.97
2022-08-08T22:45:33.402Z,18.93
2022-08-08T22:51:06.966Z,18.89
2022-08-08T22:56:37.918Z,18.81
2022-08-08T23:02:12.730Z,18.76
2022-08-08T23:07:50.877Z,18.73
2022-08-08T23:13:22.977Z,18.68
2022-08-08T23:18:59.916Z,18.62
2022-08-08T23:24:36.280Z,18.56
2022-08-08T23:30:09.373Z,18.51
2022-08-08T23:35:59.081Z,18.46
2022-08-08T23:41:32.348Z,18.42
2022-08-08T23:49:00.920Z,18.36
2022-08-08T23:53:07.928Z,18.32
2022-08-08T23:58:45.772Z,18.27
